Time;durP1;ratioP1;P1;durP2;ratioP2;P2;SDS_P1;SDS_P2;PMS_P1;PMS_P2;Temp;Humidity;BMP_temperature;BMP_pressure;BME280_temperature;BME280_humidity;BME280_pressure;Samples;Min_cycle;Max_cycle;Signal;HPM_P1;HPM_P2
2022/09/08 00:02:26;;;;;;;14.02;11.32;;;19.50;69.00;;;;;;4991292;28;20576;-70
2022/09/08 00:04:52;;;;;;;17.35;12.43;;;19.50;69.00;;;;;;4991323;28;20066;-70
2022/09/08 00:07:21;;;;;;;16.85;13.13;;;19.40;69.00;;;;;;4974673;28;20079;-70
2022/09/08 00:09:48;;;;;;;15.73;12.60;;;19.40;69.20;;;;;;4990734;28;20046;-70
2022/09/08 00:12:15;;;;;;;16.95;13.18;;;19.40;69.20;;;;;;4974827;28;20257;-71
2022/09/08 00:14:42;;;;;;;18.42;14.20;;;19.30;69.20;;;;;;4974728;28;20061;-70
2022/09/08 00:17:09;;;;;;;17.95;14.25;;;19.30;69.30;;;;;;4974737;28;20074;-70
2022/09/08 00:19:36;;;;;;;18.92;14.48;;;19.30;69.50;;;;;;4994881;28;20050;-70
2022/09/08 00:22:03;;;;;;;17.07;14.50;;;19.30;69.50;;;;;;4991034;28;20063;-70
2022/09/08 00:24:31;;;;;;;16.90;14.05;;;19.20;69.70;;;;;;4974791;28;20243;-70
2022/09/08 00:26:58;;;;;;;19.55;14.88;;;19.20;69.90;;;;;;4974403;28;20137;-70
2022/09/08 00:29:25;;;;;;;19.25;15.43;;;19.20;69.90;;;;;;4990558;28;20073;-70
2022/09/08 00:31:52;;;;;;;20.52;15.68;;;19.10;70.20;;;;;;4973903;28;20078;-70
2022/09/08 00:34:19;;;;;;;20.20;15.70;;;19.10;70.40;;;;;;4991920;28;20129;-70
2022/09/08 00:36:46;;;;;;;19.55;15.63;;;19.10;70.50;;;;;;4990714;28;20258;-70
2022/09/08 00:39:15;;;;;;;22.35;16.48;;;19.00;70.80;;;;;;4990522;28;20055;-70
2022/09/08 00:41:43;;;;;;;18.02;15.30;;;19.00;70.80;;;;;;4974684;28;20058;-70
2022/09/08 00:44:36;;;;;;;20.80;15.20;;;19.00;71.00;;;;;;4974484;28;20053;-70
2022/09/08 00:47:07;;;;;;;19.97;15.63;;;19.00;70.50;;;;;;4991816;28;20113;-70
2022/09/08 00:49:34;;;;;;;22.70;16.27;;;19.00;70.90;;;;;;4974121;28;20290;-70
2022/09/08 00:52:01;;;;;;;22.75;16.20;;;19.00;71.00;;;;;;4974223;28;20065;-70
2022/09/08 00:54:28;;;;;;;18.98;14.80;;;18.90;71.00;;;;;;4990622;28;20797;-70
2022/09/08 00:56:59;;;;;;;19.92;15.00;;;18.90;71.00;;;;;;4991717;28;20047;-70
2022/09/08 00:59:26;;;;;;;22.17;16.20;;;18.90;71.00;;;;;;4990139;28;20078;-70
2022/09/08 01:01:54;;;;;;;22.48;16.48;;;18.90;70.90;;;;;;4991590;28;20334;-70
2022/09/08 01:04:21;;;;;;;21.58;17.45;;;18.90;71.00;;;;;;4974243;28;20222;-70
2022/09/08 01:12:46;;;;;;;25.13;19.50;;;18.90;71.20;;;;;;4954526;28;20050;-70
2022/09/08 01:15:16;;;;;;;23.10;18.52;;;18.90;71.70;;;;;;4955013;28;20626;-70
2022/09/08 01:17:43;;;;;;;24.80;19.45;;;18.90;72.10;;;;;;4970702;28;20043;-70
2022/09/08 01:20:10;;;;;;;22.00;18.25;;;18.90;72.20;;;;;;4971210;28;20114;-70
2022/09/08 01:22:53;;;;;;;25.65;19.27;;;18.80;72.70;;;;;;4970649;28;20135;-70
2022/09/08 01:25:47;;;;;;;27.67;20.40;;;18.80;72.90;;;;;;4970638;28;20078;-71
2022/09/08 01:28:20;;;;;;;26.75;20.67;;;18.70;73.20;;;;;;4970409;28;20746;-70
2022/09/08 01:30:47;;;;;;;25.95;20.20;;;18.70;73.50;;;;;;4971408;28;20454;-70
2022/09/08 01:33:16;;;;;;;24.25;18.85;;;18.70;73.50;;;;;;4971601;28;20047;-70
2022/09/08 01:35:44;;;;;;;25.63;20.05;;;18.70;73.60;;;;;;4971837;28;20071;-71
2022/09/08 01:38:12;;;;;;;27.10;20.00;;;18.70;73.80;;;;;;4970245;28;20976;-71
2022/09/08 01:40:39;;;;;;;27.00;20.83;;;18.70;73.80;;;;;;4954273;28;20276;-70
2022/09/08 01:43:08;;;;;;;24.95;19.63;;;18.70;73.90;;;;;;4955536;28;20062;-70
2022/09/08 01:45:36;;;;;;;25.65;19.90;;;18.70;74.30;;;;;;4990959;28;20066;-70
2022/09/08 01:48:03;;;;;;;25.30;19.58;;;18.70;74.20;;;;;;4976972;28;20137;-70
2022/09/08 01:50:30;;;;;;;25.60;19.63;;;18.60;74.30;;;;;;4976432;28;20055;-70
2022/09/08 01:52:57;;;;;;;28.00;21.40;;;18.70;74.80;;;;;;4994711;28;20255;-70
2022/09/08 01:55:24;;;;;;;25.75;20.27;;;18.60;74.30;;;;;;4976867;28;20098;-70
2022/09/08 01:57:51;;;;;;;26.67;20.92;;;18.60;74.70;;;;;;4976903;28;20047;-70
2022/09/08 02:00:18;;;;;;;28.20;20.10;;;18.70;75.10;;;;;;4976479;28;20043;-70
2022/09/08 02:02:46;;;;;;;26.33;20.30;;;18.70;75.30;;;;;;4976914;28;20098;-70
2022/09/08 02:05:14;;;;;;;26.67;20.05;;;18.60;75.00;;;;;;4976982;28;20274;-70
2022/09/08 02:07:41;;;;;;;26.42;20.05;;;18.60;75.30;;;;;;4976850;28;20046;-70
2022/09/08 02:10:09;;;;;;;27.48;21.13;;;18.60;75.30;;;;;;4976124;28;20065;-71
2022/09/08 02:12:36;;;;;;;27.58;21.67;;;18.60;75.20;;;;;;4976517;28;20141;-70
2022/09/08 02:15:03;;;;;;;30.47;22.00;;;18.70;75.30;;;;;;4976687;28;20050;-70
2022/09/08 02:17:30;;;;;;;25.48;19.35;;;18.70;75.30;;;;;;4975380;28;20286;-71
2022/09/08 02:19:59;;;;;;;27.45;20.75;;;18.70;75.20;;;;;;4993767;28;20854;-70
2022/09/08 02:22:25;;;;;;;28.15;21.55;;;18.70;75.60;;;;;;4994113;28;20145;-71
2022/09/08 02:24:52;;;;;;;28.40;21.92;;;18.70;75.70;;;;;;4976318;28;20519;-70
2022/09/08 02:27:19;;;;;;;30.00;21.77;;;18.70;75.70;;;;;;4976674;28;20043;-71
2022/09/08 02:29:46;;;;;;;27.63;21.52;;;18.70;75.90;;;;;;4976184;28;20811;-70
2022/09/08 02:32:13;;;;;;;26.02;20.23;;;18.70;76.10;;;;;;4975908;28;20062;-70
2022/09/08 02:34:40;;;;;;;29.50;22.48;;;18.70;76.10;;;;;;4993902;28;20059;-71
2022/09/08 02:37:08;;;;;;;27.08;20.67;;;18.70;76.10;;;;;;4993387;28;20047;-71
2022/09/08 02:39:35;;;;;;;25.73;21.17;;;18.60;76.10;;;;;;4993430;28;20145;-70
2022/09/08 02:42:02;;;;;;;27.75;20.98;;;18.60;76.20;;;;;;4993950;28;20339;-70
2022/09/08 02:44:29;;;;;;;26.85;20.85;;;18.70;76.20;;;;;;4975952;28;20043;-70
2022/09/08 02:46:57;;;;;;;27.48;21.20;;;18.70;76.10;;;;;;4993735;28;20101;-70
2022/09/08 02:49:24;;;;;;;28.52;21.65;;;18.60;76.50;;;;;;4990828;28;20050;-70
2022/09/08 02:51:51;;;;;;;24.70;19.97;;;18.60;76.40;;;;;;4992306;28;20047;-71
2022/09/08 02:54:19;;;;;;;27.70;20.65;;;18.60;76.20;;;;;;4995517;28;20271;-70
2022/09/08 02:56:46;;;;;;;27.70;20.85;;;18.60;76.50;;;;;;4975979;28;20051;-70
2022/09/08 02:59:14;;;;;;;25.83;19.95;;;18.60;76.50;;;;;;4975615;28;20074;-70
2022/09/08 03:01:42;;;;;;;26.95;21.00;;;18.60;76.60;;;;;;4976104;28;20086;-70
2022/09/08 03:04:08;;;;;;;24.80;20.70;;;18.60;76.70;;;;;;4993326;28;20063;-70
2022/09/08 03:06:36;;;;;;;29.05;21.42;;;18.60;76.80;;;;;;4975413;28;20339;-70
2022/09/08 03:09:03;;;;;;;28.00;21.35;;;18.60;76.70;;;;;;4975860;28;20065;-71
2022/09/08 03:11:32;;;;;;;26.17;20.27;;;18.60;76.70;;;;;;4993059;28;20162;-70
2022/09/08 03:13:59;;;;;;;27.13;21.17;;;18.60;76.70;;;;;;4975527;28;20051;-70
2022/09/08 03:16:26;;;;;;;30.63;22.97;;;18.60;76.70;;;;;;4993048;28;20057;-70
2022/09/08 03:18:53;;;;;;;29.23;22.67;;;18.60;76.70;;;;;;4992963;28;20293;-71
2022/09/08 03:21:21;;;;;;;28.42;21.20;;;18.70;76.90;;;;;;4974717;28;20469;-70
2022/09/08 03:23:48;;;;;;;26.70;20.83;;;18.70;76.60;;;;;;4975588;28;20977;-70
2022/09/08 03:26:17;;;;;;;27.48;20.92;;;18.70;76.90;;;;;;4975599;28;20039;-70
2022/09/08 03:28:45;;;;;;;28.70;22.47;;;18.70;76.80;;;;;;4991593;28;20053;-70
2022/09/08 03:31:14;;;;;;;31.88;23.02;;;18.70;76.70;;;;;;4974920;28;20283;-70
2022/09/08 03:33:43;;;;;;;28.08;21.42;;;18.70;76.70;;;;;;4992464;28;20063;-71
2022/09/08 03:36:11;;;;;;;30.88;23.55;;;18.70;76.70;;;;;;4974807;28;20543;-70
2022/09/08 03:38:39;;;;;;;29.20;22.60;;;18.70;76.90;;;;;;4975295;28;20051;-70
2022/09/08 03:41:06;;;;;;;28.57;22.97;;;18.70;76.90;;;;;;4989978;28;20059;-70
2022/09/08 03:43:33;;;;;;;29.92;23.55;;;18.70;77.10;;;;;;4974010;28;20343;-71
2022/09/08 03:46:06;;;;;;;31.00;22.88;;;18.60;77.20;;;;;;4973524;28;20081;-70
2022/09/08 03:48:34;;;;;;;30.02;22.50;;;18.60;77.10;;;;;;4990981;28;20055;-71
2022/09/08 03:51:08;;;;;;;30.95;23.60;;;18.60;77.40;;;;;;4973556;28;20102;-71
2022/09/08 03:53:35;;;;;;;29.23;23.13;;;18.60;77.30;;;;;;4994867;28;20142;-70
2022/09/08 03:56:06;;;;;;;28.85;22.52;;;18.60;77.30;;;;;;4992253;28;20261;-70
2022/09/08 03:58:33;;;;;;;33.13;23.30;;;18.60;77.20;;;;;;4992322;28;20539;-70
2022/09/08 04:01:00;;;;;;;30.77;23.58;;;18.60;77.10;;;;;;4974672;28;20077;-70
2022/09/08 04:03:28;;;;;;;30.63;23.10;;;18.60;77.20;;;;;;4992584;28;20098;-71
2022/09/08 04:05:55;;;;;;;29.33;22.43;;;18.60;77.10;;;;;;4992481;28;20047;-70
2022/09/08 04:08:22;;;;;;;30.27;23.58;;;18.60;77.00;;;;;;4974724;28;20286;-70
2022/09/08 04:10:49;;;;;;;31.52;22.77;;;18.60;76.90;;;;;;4974158;28;20134;-70
2022/09/08 04:13:16;;;;;;;30.08;22.60;;;18.60;76.90;;;;;;4974582;28;20058;-70
2022/09/08 04:15:43;;;;;;;31.30;23.27;;;18.60;76.80;;;;;;4974623;28;20145;-70
2022/09/08 04:18:10;;;;;;;30.60;24.00;;;18.60;76.80;;;;;;4974545;28;20125;-70
2022/09/08 04:20:39;;;;;;;28.83;22.42;;;18.60;76.90;;;;;;4990723;28;20322;-70
2022/09/08 04:23:07;;;;;;;29.13;22.25;;;18.60;77.10;;;;;;5003801;28;20106;-71
2022/09/08 04:25:34;;;;;;;28.15;20.98;;;18.50;77.00;;;;;;4994043;28;20101;-70
2022/09/08 04:28:01;;;;;;;28.80;21.90;;;18.50;77.30;;;;;;5010435;28;20153;-71
2022/09/08 04:30:29;;;;;;;30.47;22.80;;;18.40;76.90;;;;;;4993873;28;20054;-70
2022/09/08 04:32:56;;;;;;;33.35;24.45;;;18.50;76.80;;;;;;4993810;28;20278;-71
2022/09/08 04:35:23;;;;;;;32.35;23.27;;;18.50;77.00;;;;;;4993671;28;20046;-71
2022/09/08 04:37:51;;;;;;;31.60;25.30;;;18.50;76.90;;;;;;5011465;28;20054;-70
2022/09/08 04:40:18;;;;;;;32.15;24.17;;;18.50;76.90;;;;;;5010845;28;20058;-71
2022/09/08 04:42:45;;;;;;;30.87;23.30;;;18.50;76.80;;;;;;4993503;28;20133;-70
2022/09/08 04:45:15;;;;;;;31.10;23.60;;;18.50;76.80;;;;;;4993663;28;20262;-70
2022/09/08 04:47:42;;;;;;;32.55;24.80;;;18.60;76.70;;;;;;5011585;28;20058;-70
2022/09/08 04:50:09;;;;;;;32.40;23.98;;;18.60;76.70;;;;;;4993095;28;21018;-70
2022/09/08 04:52:37;;;;;;;32.50;24.10;;;18.60;76.50;;;;;;5009671;28;20124;-70
2022/09/08 04:55:07;;;;;;;31.73;24.20;;;18.60;76.50;;;;;;4985586;28;20074;-71
2022/09/08 04:57:35;;;;;;;32.53;25.13;;;18.60;76.60;;;;;;4991635;28;20289;-70
2022/09/08 05:00:03;;;;;;;33.35;25.05;;;18.60;76.60;;;;;;4991334;28;20054;-70
2022/09/08 05:02:30;;;;;;;34.38;24.45;;;18.50;76.60;;;;;;4991512;28;20051;-70
2022/09/08 05:04:57;;;;;;;33.83;24.10;;;18.50;76.80;;;;;;4991044;28;20046;-70
2022/09/08 05:07:24;;;;;;;30.10;22.70;;;18.50;76.80;;;;;;4974069;28;20050;-70
2022/09/08 05:09:51;;;;;;;30.17;22.55;;;18.50;76.60;;;;;;4991049;28;20803;-70
2022/09/08 05:12:20;;;;;;;31.40;23.65;;;18.50;76.40;;;;;;4991376;28;20051;-71
2022/09/08 05:14:46;;;;;;;32.38;22.80;;;18.50;76.50;;;;;;4973633;28;20050;-70
2022/09/08 05:17:13;;;;;;;27.17;21.50;;;18.50;76.20;;;;;;4973803;28;20053;-70
2022/09/08 05:19:40;;;;;;;31.27;23.00;;;18.50;75.90;;;;;;4990593;28;20061;-71
2022/09/08 05:22:07;;;;;;;28.25;21.67;;;18.50;75.80;;;;;;4972589;28;20761;-70
2022/09/08 05:24:34;;;;;;;30.88;23.33;;;18.50;75.90;;;;;;4991270;28;20055;-71
2022/09/08 05:27:01;;;;;;;34.22;24.63;;;18.50;76.20;;;;;;4990830;28;20086;-70
2022/09/08 05:29:30;;;;;;;30.73;21.48;;;18.50;76.40;;;;;;4971597;28;20061;-70
2022/09/08 05:31:57;;;;;;;30.83;22.30;;;18.50;76.40;;;;;;4973156;28;20073;-70
2022/09/08 05:34:24;;;;;;;37.50;25.83;;;18.50;76.10;;;;;;5003847;23;20259;-71
2022/09/08 05:36:50;;;;;;;39.40;27.17;;;18.50;76.00;;;;;;4990955;28;20083;-71
2022/09/08 05:39:17;;;;;;;34.70;25.58;;;18.50;75.90;;;;;;4973250;28;20043;-71
2022/09/08 05:41:44;;;;;;;33.00;23.30;;;18.50;76.10;;;;;;4973646;28;20054;-71
2022/09/08 05:44:14;;;;;;;38.57;27.13;;;18.50;76.30;;;;;;4990872;28;20089;-70
2022/09/08 05:46:43;;;;;;;51.30;32.35;;;18.50;76.60;;;;;;4972149;28;20290;-70
2022/09/08 05:49:10;;;;;;;49.35;31.02;;;18.60;77.20;;;;;;4972058;28;20063;-70
2022/09/08 05:51:37;;;;;;;43.53;28.33;;;18.60;77.40;;;;;;4989890;28;20059;-70
2022/09/08 05:54:04;;;;;;;42.90;28.80;;;18.60;77.40;;;;;;4990087;28;20055;-70
2022/09/08 05:56:32;;;;;;;41.60;27.93;;;18.50;77.50;;;;;;4987692;28;20497;-71
2022/09/08 05:58:59;;;;;;;39.92;27.00;;;18.50;77.80;;;;;;4989726;28;20258;-71
2022/09/08 06:01:27;;;;;;;40.88;26.75;;;18.50;77.80;;;;;;4971539;28;20556;-71
2022/09/08 06:03:56;;;;;;;39.50;27.60;;;18.40;77.70;;;;;;4969661;28;20058;-72
2022/09/08 06:06:23;;;;;;;41.45;26.88;;;18.40;77.70;;;;;;4971366;28;20070;-71
2022/09/08 06:08:52;;;;;;;44.13;28.50;;;18.40;77.80;;;;;;4971106;28;20055;-71
2022/09/08 06:11:19;;;;;;;36.92;25.52;;;18.50;78.00;;;;;;4971519;28;20280;-71
2022/09/08 06:13:46;;;;;;;36.92;26.38;;;18.50;77.90;;;;;;4988415;28;20603;-71
2022/09/08 06:16:15;;;;;;;37.40;26.40;;;18.50;78.00;;;;;;4989872;28;20058;-71
2022/09/08 06:18:43;;;;;;;39.38;26.60;;;18.50;78.10;;;;;;4972360;28;20062;-71
2022/09/08 06:21:14;;;;;;;36.87;25.80;;;18.50;78.20;;;;;;4989917;28;20054;-72
2022/09/08 06:23:41;;;;;;;37.53;24.50;;;18.50;78.30;;;;;;4971910;28;20742;-71
2022/09/08 06:26:37;;;;;;;38.35;24.70;;;18.50;78.60;;;;;;4989957;28;20065;-70
2022/09/08 06:29:11;;;;;;;37.53;25.88;;;18.50;78.60;;;;;;4989379;28;20054;-71
2022/09/08 06:31:52;;;;;;;36.50;24.95;;;18.40;78.70;;;;;;4971959;28;20062;-72
2022/09/08 06:34:24;;;;;;;35.33;25.47;;;18.40;79.00;;;;;;4973363;28;20994;-71
2022/09/08 06:36:56;;;;;;;37.03;25.90;;;18.40;79.00;;;;;;4970444;28;20792;-72
2022/09/08 06:39:28;;;;;;;32.92;24.05;;;18.40;79.10;;;;;;4991760;28;20055;-72
2022/09/08 06:42:02;;;;;;;30.50;21.60;;;18.40;79.10;;;;;;4974354;28;20098;-72
2022/09/08 06:44:32;;;;;;;30.00;20.95;;;18.40;79.40;;;;;;4991966;28;20054;-71
2022/09/08 06:46:59;;;;;;;31.73;23.03;;;18.40;79.40;;;;;;4974552;28;20149;-71
2022/09/08 06:49:27;;;;;;;34.55;24.00;;;18.40;79.50;;;;;;4992906;28;20251;-71
2022/09/08 06:52:14;;;;;;;34.83;23.58;;;18.30;79.70;;;;;;4992482;28;20161;-71
2022/09/08 06:54:48;;;;;;;31.45;21.55;;;18.30;79.80;;;;;;4992762;28;20085;-71
2022/09/08 06:57:26;;;;;;;27.58;19.55;;;18.30;80.10;;;;;;4992730;28;20054;-71
2022/09/08 07:00:03;;;;;;;31.73;21.27;;;18.30;80.10;;;;;;4992049;28;20139;-72
2022/09/08 07:02:56;;;;;;;27.80;19.67;;;18.30;79.80;;;;;;4989911;28;20279;-72
2022/09/08 07:05:52;;;;;;;29.23;19.85;;;18.30;79.90;;;;;;4992134;28;20166;-72
2022/09/08 07:08:32;;;;;;;27.55;19.58;;;18.30;80.00;;;;;;4970118;28;20047;-73
2022/09/08 07:11:07;;;;;;;26.60;19.23;;;18.30;80.10;;;;;;4991401;28;20531;-73
2022/09/08 07:13:38;;;;;;;17.33;13.33;;;18.30;80.20;;;;;;4992084;28;20047;-72
2022/09/08 07:16:10;;;;;;;23.67;17.10;;;18.30;80.20;;;;;;4990390;28;20700;-72
2022/09/08 07:18:42;;;;;;;20.20;14.52;;;18.30;80.30;;;;;;4972670;28;20057;-73
2022/09/08 07:21:21;;;;;;;20.83;15.00;;;18.30;80.40;;;;;;4988051;28;20150;-73
2022/09/08 07:23:54;;;;;;;20.20;15.65;;;18.30;80.60;;;;;;4972052;28;20432;-72
2022/09/08 07:26:30;;;;;;;27.63;18.87;;;18.30;80.70;;;;;;4989155;28;20138;-73
2022/09/08 07:29:03;;;;;;;25.67;17.73;;;18.30;80.80;;;;;;4974185;28;20373;-72
2022/09/08 07:31:30;;;;;;;25.80;17.42;;;18.30;80.90;;;;;;4990049;28;20082;-72
2022/09/08 07:34:03;;;;;;;22.48;15.02;;;18.30;80.80;;;;;;4972628;28;20059;-72
2022/09/08 07:36:37;;;;;;;30.27;20.77;;;18.20;80.90;;;;;;4988454;28;20055;-73
2022/09/08 07:39:16;;;;;;;30.17;20.67;;;18.30;80.90;;;;;;4990670;28;20077;-72
2022/09/08 07:41:48;;;;;;;26.17;18.00;;;18.30;81.00;;;;;;4974813;28;20271;-72
2022/09/08 07:44:17;;;;;;;28.40;19.02;;;18.30;81.10;;;;;;4990136;28;20054;-72
2022/09/08 07:47:11;;;;;;;25.60;17.55;;;18.30;81.10;;;;;;4973872;28;20050;-71
2022/09/08 07:49:46;;;;;;;28.55;20.08;;;18.30;81.10;;;;;;4988975;28;20055;-73
2022/09/08 07:52:21;;;;;;;23.23;16.73;;;18.20;81.20;;;;;;4985917;28;20059;-72
2022/09/08 07:55:01;;;;;;;31.25;20.73;;;18.20;81.30;;;;;;4975094;28;20285;-73
2022/09/08 07:57:38;;;;;;;27.65;18.75;;;18.30;81.40;;;;;;4974324;28;20050;-72
2022/09/08 08:00:11;;;;;;;30.20;21.20;;;18.30;81.50;;;;;;4973911;28;20517;-71
2022/09/08 08:02:56;;;;;;;33.25;22.13;;;18.20;81.40;;;;;;4989250;28;20058;-72
2022/09/08 08:05:30;;;;;;;26.27;17.27;;;18.20;81.40;;;;;;4991793;28;20490;-72
2022/09/08 08:08:09;;;;;;;27.60;18.55;;;18.20;81.50;;;;;;4974401;28;20271;-73
2022/09/08 08:10:43;;;;;;;26.65;18.15;;;18.20;81.50;;;;;;4971350;28;20051;-73
2022/09/08 08:13:18;;;;;;;33.25;23.17;;;18.20;81.60;;;;;;4974090;28;20050;-73
2022/09/08 08:15:47;;;;;;;29.83;21.63;;;18.30;81.50;;;;;;4973120;28;20062;-73
2022/09/08 08:18:19;;;;;;;32.13;21.47;;;18.30;81.50;;;;;;4973502;28;20090;-73
2022/09/08 08:20:51;;;;;;;28.73;20.60;;;18.30;81.50;;;;;;4974386;28;20267;-73
2022/09/08 08:23:51;;;;;;;30.85;21.30;;;18.30;81.70;;;;;;4974109;28;20101;-73
2022/09/08 08:26:32;;;;;;;28.17;20.38;;;18.30;81.80;;;;;;4971766;28;20051;-73
2022/09/08 08:29:18;;;;;;;29.13;20.60;;;18.30;81.70;;;;;;4991507;28;20049;-73
2022/09/08 08:31:50;;;;;;;28.30;20.20;;;18.30;81.70;;;;;;4971903;28;20557;-73
2022/09/08 08:34:25;;;;;;;28.38;19.48;;;18.30;81.70;;;;;;4973720;28;20263;-73
2022/09/08 08:36:56;;;;;;;26.60;18.40;;;18.30;81.90;;;;;;4991034;28;20046;-72
2022/09/08 08:39:24;;;;;;;24.75;17.08;;;18.30;82.10;;;;;;4973698;28;20051;-72
2022/09/08 08:42:14;;;;;;;22.60;14.77;;;18.40;82.30;;;;;;4987649;28;20055;-72
2022/09/08 08:45:05;;;;;;;19.73;14.03;;;18.40;82.10;;;;;;4973357;28;20074;-72
2022/09/08 08:48:16;;;;;;;17.70;12.88;;;18.40;82.00;;;;;;4980705;28;20624;-72
2022/09/08 08:51:05;;;;;;;17.90;11.55;;;18.40;82.10;;;;;;4987761;28;20043;-72
2022/09/08 08:53:55;;;;;;;16.13;10.52;;;18.40;82.10;;;;;;4986949;28;20059;-72
2022/09/08 08:56:28;;;;;;;14.48;9.68;;;18.40;82.10;;;;;;4989739;28;20106;-72
2022/09/08 08:59:20;;;;;;;16.83;9.93;;;18.30;82.10;;;;;;4972949;28;20054;-72
2022/09/08 09:02:05;;;;;;;15.85;9.77;;;18.30;82.10;;;;;;4973597;28;20251;-72
2022/09/08 09:04:54;;;;;;;12.93;8.52;;;18.30;82.20;;;;;;4973372;28;20055;-73
2022/09/08 09:07:44;;;;;;;12.45;8.48;;;18.30;82.30;;;;;;4989530;28;20059;-73
2022/09/08 09:10:43;;;;;;;13.10;9.02;;;18.30;82.20;;;;;;4973173;28;20129;-74
2022/09/08 09:13:36;;;;;;;14.07;8.50;;;18.30;82.20;;;;;;4988376;28;20142;-73
2022/09/08 09:16:24;;;;;;;12.45;7.80;;;18.40;82.20;;;;;;4990633;28;21046;-73
2022/09/08 09:19:26;;;;;;;11.07;7.80;;;18.30;82.20;;;;;;5006347;28;20101;-72
2022/09/08 09:21:54;;;;;;;10.30;6.97;;;18.30;82.30;;;;;;4973138;28;20077;-72
2022/09/08 09:24:38;;;;;;;10.07;6.53;;;18.30;82.50;;;;;;4988918;28;20051;-72
2022/09/08 09:27:15;;;;;;;10.43;6.63;;;18.30;82.40;;;;;;4987149;28;20053;-72
2022/09/08 09:29:42;;;;;;;9.68;6.15;;;18.30;82.30;;;;;;4988161;28;20307;-72
2022/09/08 09:32:34;;;;;;;9.80;5.15;;;18.30;82.30;;;;;;4996359;28;21022;-72
2022/09/08 09:35:24;;;;;;;10.07;6.90;;;18.30;82.50;;;;;;4989362;28;20061;-72
2022/09/08 09:38:32;;;;;;;11.75;6.40;;;18.20;82.40;;;;;;4988960;28;20111;-72
2022/09/08 09:41:22;;;;;;;10.47;6.40;;;18.20;82.50;;;;;;4894376;29;20240;-72
2022/09/08 09:44:08;;;;;;;8.07;5.85;;;18.10;82.70;;;;;;4908130;29;20337;-72
2022/09/08 09:47:03;;;;;;;7.75;5.63;;;18.00;82.90;;;;;;4971373;28;20047;-72
2022/09/08 09:50:03;;;;;;;6.65;4.32;;;18.00;82.80;;;;;;4970684;28;20544;-72
2022/09/08 09:52:40;;;;;;;7.22;4.28;;;17.90;82.90;;;;;;4969041;28;20051;-72
2022/09/08 09:55:23;;;;;;;6.63;4.10;;;17.90;83.00;;;;;;4971072;28;20133;-72
2022/09/08 09:58:26;;;;;;;7.15;3.65;;;17.90;83.10;;;;;;4990776;28;20378;-73
2022/09/08 10:01:07;;;;;;;8.50;4.03;;;17.90;83.10;;;;;;4973451;28;20058;-72
2022/09/08 10:04:00;;;;;;;6.60;4.40;;;17.80;83.00;;;;;;4973269;28;20102;-72
2022/09/08 10:06:53;;;;;;;5.40;3.63;;;17.80;83.20;;;;;;4972717;28;20051;-72
2022/09/08 10:10:04;;;;;;;5.43;3.23;;;17.80;83.10;;;;;;4981600;28;20068;-72
2022/09/08 10:13:05;;;;;;;4.60;2.55;;;17.80;83.00;;;;;;4993797;28;20357;-72
2022/09/08 10:16:01;;;;;;;5.88;2.45;;;17.80;83.00;;;;;;4975921;28;20141;-72
2022/09/08 10:19:09;;;;;;;5.68;2.90;;;17.80;82.80;;;;;;4993481;28;20057;-72
2022/09/08 10:22:12;;;;;;;4.38;2.00;;;17.80;83.00;;;;;;4967089;28;20525;-72
2022/09/08 10:25:03;;;;;;;4.27;1.80;;;17.80;82.70;;;;;;4975114;28;20054;-72
2022/09/08 10:28:31;;;;;;;5.90;2.20;;;17.80;82.60;;;;;;4992609;28;20258;-72
2022/09/08 10:31:33;;;;;;;4.38;2.10;;;17.70;82.50;;;;;;4991888;28;21214;-72
2022/09/08 10:34:25;;;;;;;4.28;2.05;;;17.60;82.60;;;;;;4972123;28;21008;-72
2022/09/08 10:37:24;;;;;;;5.35;1.92;;;17.60;82.60;;;;;;4992412;28;20114;-73
2022/09/08 10:40:16;;;;;;;4.07;2.07;;;17.60;82.70;;;;;;4990273;28;20487;-72
2022/09/08 10:42:48;;;;;;;5.03;2.28;;;17.60;82.60;;;;;;4980219;28;20335;-72
2022/09/08 10:45:46;;;;;;;4.70;1.90;;;17.50;82.70;;;;;;4992174;28;20051;-72
2022/09/08 10:48:43;;;;;;;3.80;1.65;;;17.50;82.70;;;;;;4964615;28;20087;-72
2022/09/08 10:51:41;;;;;;;4.05;1.90;;;17.50;82.70;;;;;;4984678;28;20134;-72
2022/09/08 10:54:26;;;;;;;5.27;2.13;;;17.50;82.50;;;;;;4925672;28;20051;-73
2022/09/08 10:56:59;;;;;;;5.35;2.28;;;17.50;82.70;;;;;;4985245;28;20270;-71
2022/09/08 10:59:57;;;;;;;4.38;2.30;;;17.50;83.00;;;;;;4974465;28;20062;-70
2022/09/08 11:02:31;;;;;;;5.10;2.83;;;17.50;82.90;;;;;;4989863;28;20047;-71
2022/09/08 11:05:39;;;;;;;4.13;2.47;;;17.50;83.20;;;;;;4990549;28;20102;-71
2022/09/08 11:08:36;;;;;;;4.40;2.50;;;17.50;83.20;;;;;;4994804;28;20055;-71
2022/09/08 11:11:20;;;;;;;5.15;2.50;;;17.50;83.00;;;;;;4973137;28;20803;-71
2022/09/08 11:14:00;;;;;;;4.85;2.20;;;17.50;83.10;;;;;;4974360;28;20142;-71
2022/09/08 11:17:05;;;;;;;4.82;2.22;;;17.50;83.20;;;;;;4973925;28;20046;-71
2022/09/08 11:19:39;;;;;;;4.18;2.05;;;17.50;83.10;;;;;;4895761;29;20053;-71
2022/09/08 11:22:36;;;;;;;4.57;2.00;;;17.40;83.00;;;;;;4963728;28;20211;-72
2022/09/08 11:25:21;;;;;;;4.10;2.13;;;17.50;83.10;;;;;;4993080;28;20281;-72
2022/09/08 11:27:56;;;;;;;4.72;2.03;;;17.40;83.10;;;;;;4993162;28;20811;-71
2022/09/08 11:30:31;;;;;;;4.50;2.30;;;17.40;83.10;;;;;;4974671;28;20559;-71
2022/09/08 11:33:12;;;;;;;4.15;2.13;;;17.50;83.20;;;;;;4993025;28;20055;-71
2022/09/08 11:35:54;;;;;;;5.20;2.33;;;17.50;83.10;;;;;;4975268;28;20580;-71
2022/09/08 11:38:52;;;;;;;4.15;2.20;;;17.50;83.00;;;;;;4974859;28;20278;-71
2022/09/08 11:41:43;;;;;;;3.92;2.13;;;17.50;83.00;;;;;;4992349;28;20062;-71
2022/09/08 11:44:40;;;;;;;4.30;2.22;;;17.50;83.00;;;;;;4988942;28;20587;-71
2022/09/08 11:47:41;;;;;;;4.25;2.38;;;17.50;83.00;;;;;;4989924;28;20097;-71
2022/09/08 11:50:45;;;;;;;3.93;2.20;;;17.50;83.10;;;;;;4973030;28;20466;-71
2022/09/08 11:53:39;;;;;;;5.38;2.53;;;17.50;82.90;;;;;;4988814;28;20275;-71
2022/09/08 11:56:24;;;;;;;4.75;2.22;;;17.50;82.90;;;;;;4988133;28;20046;-71
2022/09/08 11:59:07;;;;;;;4.78;2.50;;;17.50;83.00;;;;;;4972168;28;20069;-71
2022/09/08 12:01:42;;;;;;;7.75;3.28;;;17.60;83.20;;;;;;4986222;28;20317;-71
2022/09/08 12:04:34;;;;;;;6.67;3.13;;;17.60;83.30;;;;;;4972763;28;20141;-71
2022/09/08 12:07:16;;;;;;;6.20;3.38;;;17.60;83.20;;;;;;4960229;28;20267;-71
2022/09/08 12:10:01;;;;;;;5.68;3.60;;;17.60;83.20;;;;;;4989819;28;20106;-71
2022/09/08 12:12:46;;;;;;;7.43;3.95;;;17.60;83.20;;;;;;4991913;28;20485;-71
2022/09/08 12:15:28;;;;;;;6.13;3.70;;;17.60;83.20;;;;;;4973112;28;21011;-71
2022/09/08 12:18:13;;;;;;;7.60;4.80;;;17.70;83.20;;;;;;4973955;28;20051;-72
2022/09/08 12:21:00;;;;;;;8.40;4.93;;;17.70;83.20;;;;;;4974384;28;20770;-71
2022/09/08 12:23:36;;;;;;;8.70;5.07;;;17.80;83.20;;;;;;4972472;28;20055;-71
2022/09/08 12:26:21;;;;;;;10.02;5.45;;;17.80;83.40;;;;;;4992250;28;20057;-71
2022/09/08 12:29:07;;;;;;;8.45;5.63;;;17.80;83.30;;;;;;4992063;28;20598;-71
2022/09/08 12:31:58;;;;;;;9.47;5.73;;;17.80;83.20;;;;;;4973997;28;20051;-71
2022/09/08 12:35:09;;;;;;;9.98;6.22;;;17.80;83.30;;;;;;4973878;28;20350;-71
2022/09/08 12:37:51;;;;;;;9.90;6.57;;;17.80;83.10;;;;;;4974408;28;20524;-71
2022/09/08 12:40:40;;;;;;;9.98;6.20;;;17.90;83.20;;;;;;4974019;28;20053;-72
2022/09/08 12:43:17;;;;;;;9.63;6.32;;;17.90;83.20;;;;;;4991976;28;20117;-71
2022/09/08 12:46:20;;;;;;;11.57;6.50;;;18.00;83.20;;;;;;4973182;28;20559;-71
2022/09/08 12:49:08;;;;;;;12.73;7.15;;;18.00;83.00;;;;;;4973445;28;20314;-72
2022/09/08 12:51:36;;;;;;;12.02;7.72;;;18.00;83.10;;;;;;4974254;28;20141;-72
2022/09/08 12:54:23;;;;;;;11.32;7.20;;;18.00;83.20;;;;;;4972087;28;20057;-72
2022/09/08 12:57:10;;;;;;;10.65;6.72;;;18.00;83.00;;;;;;4990506;28;20061;-72
2022/09/08 12:59:50;;;;;;;12.67;7.70;;;18.00;83.00;;;;;;4989845;28;20047;-72
2022/09/08 13:02:35;;;;;;;14.55;8.43;;;18.00;83.20;;;;;;4990358;28;20270;-72
2022/09/08 13:05:17;;;;;;;12.77;6.82;;;18.10;83.20;;;;;;4972503;28;20043;-72
2022/09/08 13:07:53;;;;;;;14.10;7.90;;;18.10;83.10;;;;;;4975099;28;20150;-72
2022/09/08 13:10:27;;;;;;;12.48;7.47;;;18.10;83.10;;;;;;4983145;28;20057;-72
2022/09/08 13:13:20;;;;;;;12.63;7.47;;;18.20;82.90;;;;;;4972971;28;20058;-71
2022/09/08 13:15:52;;;;;;;11.85;7.38;;;18.20;82.90;;;;;;4988817;28;20354;-72
2022/09/08 13:18:30;;;;;;;12.52;8.00;;;18.20;83.00;;;;;;4990877;28;20082;-71
2022/09/08 13:21:05;;;;;;;11.88;7.70;;;18.30;82.90;;;;;;4973035;28;21066;-72
2022/09/08 13:23:43;;;;;;;14.35;7.80;;;18.30;82.70;;;;;;4971802;28;20138;-72
2022/09/08 13:26:32;;;;;;;12.60;8.03;;;18.30;82.50;;;;;;4971900;28;20051;-72